Lillian, AL (36549)

7:46 PM CDT on April 19, 2015 (GMT -0500)
Little Creek Subdivision | | Change Station
CLOSE
Current Station
Personal Weather Station
Location: Pensacola, FL
Elevation: 12 ft
Nearby Weather Stations

Elev 12 ft 30.40 °N, 87.38 °W | Updated 2 seconds ago

Clear
Clear
73.0 °F
Feels Like 73.0 °F
N
3.6
Wind Variable Wind from North
Gusts 4.9 mph

Today
High -- | Low -- °F
--% Chance of Precip.
Yesterday
High -- | Low -- °F
Precip. -- in
6:18 AM 7:19 PM
New Moon, 2% visible
Pressure 29.79 in
Visibility 10.0 miles
Clouds Scattered Clouds 20000 ft
Dew Point 72 °F
Humidity 95%
Rainfall 3.24 in
Snow Depth Not available.
UV 0 out of 12
Pollen 6.00 out of 12
Air Quality Not available.
Flu Activity Sporadic
METAR KNPA 192356Z 23007KT 10SM SCT200 23/21 A2978 RMK AO2 SLP086 T02330211 10256 20233 58002 $

More Conditions Fewer Conditions

Pressure 29.79 in
Visibility 10.0 miles
Clouds Scattered Clouds 20000 ft
Dew Point 72 °F
Humidity 95%
Rainfall 3.24 in
Snow Depth Not available.
UV 0 out of 12
Pollen 6.00 out of 12
Air Quality Not available.
Flu Activity Sporadic
METAR KNPA 192356Z 23007KT 10SM SCT200 23/21 A2978 RMK AO2 SLP086 T02330211 10256 20233 58002 $

More Conditions Fewer Conditions

10-Day Weather Forecast

Almanac

Astronomy

Apr. 19, 2015 Rise Set
Actual Time
Civil Twilight
Nautical Twilight
Astronomical Twilight
Moon
Length of Visible Light
Length of Day
Tomorrow will be .
, % of the Moon is Illuminated

Today's Extremes

State Highs State Lows

Community

WunderPhotos

Upload Photos

1,815,065 photos uploaded!

WunderBlogs® & News

Nearby

Air Quality

  Air Quality AQ Index Pollutant
Not available.

Snow Depth

Station Depth Elevation

Earthquake Activity

City Distance Mag. Time & Date
Minimum magnitude displayed is 2.5.

Coastal Water Temperatures

Place Temperature

Stations

Nearby Weather Stations

Station Location Temp. Windchill Dew Point Humidity Wind Precip. Elev Updated Type